createdAt,value
2017-06-05T00:00:00.681Z,0
2017-06-05T00:01:00.033Z,0
2017-06-05T00:02:00.623Z,0
2017-06-05T00:03:00.611Z,0
2017-06-05T00:04:00.049Z,0
2017-06-05T00:05:00.272Z,0
2017-06-05T00:06:00.254Z,0
2017-06-05T00:06:59.975Z,0
2017-06-05T00:08:00.522Z,0
2017-06-05T00:09:00.215Z,0
2017-06-05T00:10:00.504Z,0
2017-06-05T00:11:00.476Z,0
2017-06-05T00:12:00.219Z,0
2017-06-05T00:13:00.442Z,0
2017-06-05T00:14:00.441Z,0
2017-06-05T00:15:00.421Z,0
2017-06-05T00:16:00.132Z,0
2017-06-05T00:17:00.122Z,0
2017-06-05T00:18:00.077Z,0
2017-06-05T00:19:00.059Z,0
2017-06-05T00:20:00.337Z,0
2017-06-05T00:21:00.324Z,0
2017-06-05T00:22:00.115Z,0
2017-06-05T00:23:00.402Z,0
2017-06-05T00:24:00.306Z,0
2017-06-05T00:25:00.353Z,0
2017-06-05T00:26:00.257Z,0
2017-06-05T00:26:59.649Z,0
2017-06-05T00:28:00.221Z,0
2017-06-05T00:29:00.313Z,0
2017-06-05T00:30:00.194Z,0
2017-06-05T00:31:00.296Z,0
2017-06-05T00:32:00.245Z,0
2017-06-05T00:33:00.191Z,0
2017-06-05T00:34:00.106Z,0
2017-06-05T00:35:00.113Z,0
2017-06-05T00:36:00.173Z,0
2017-06-05T00:37:00.065Z,0
2017-06-05T00:38:00.192Z,0
2017-06-05T00:38:59.421Z,0
2017-06-05T00:40:00.036Z,0
2017-06-05T00:40:59.684Z,0
2017-06-05T00:42:00.036Z,0
2017-06-05T00:43:00.045Z,0
2017-06-05T00:43:59.669Z,0
2017-06-05T00:44:59.933Z,0
2017-06-05T00:45:59.960Z,0
2017-06-05T00:46:59.581Z,0
2017-06-05T00:47:59.611Z,0
2017-06-05T00:48:59.637Z,0
2017-06-05T00:49:59.532Z,0
2017-06-05T00:50:59.557Z,0
2017-06-05T00:51:59.530Z,0
2017-06-05T00:52:59.846Z,0
2017-06-05T00:53:59.804Z,0
2017-06-05T00:54:59.851Z,0
2017-06-05T00:55:58.801Z,0
2017-06-05T00:56:59.405Z,0
2017-06-05T00:57:59.821Z,0
2017-06-05T00:58:59.710Z,0
2017-06-05T00:59:59.425Z,0
2017-06-05T01:00:59.700Z,0
2017-06-05T01:01:59.719Z,0
2017-06-05T01:02:59.624Z,0
2017-06-05T01:03:59.650Z,0
2017-06-05T01:04:59.292Z,0
2017-06-05T01:05:59.609Z,0
2017-06-05T01:06:59.255Z,0
2017-06-05T01:07:59.583Z,0
2017-06-05T01:08:59.241Z,0
2017-06-05T01:09:58.911Z,0
2017-06-05T01:10:58.861Z,0
2017-06-05T01:11:58.886Z,0
2017-06-05T01:12:59.172Z,0
2017-06-05T01:13:58.860Z,0
2017-06-05T01:14:59.420Z,0
2017-06-05T01:15:59.548Z,0
2017-06-05T01:16:59.071Z,0
2017-06-05T01:17:59.055Z,0
2017-06-05T01:18:59.050Z,0
2017-06-05T01:19:59.100Z,0
2017-06-05T01:20:59.013Z,0
2017-06-05T01:21:59.401Z,0
2017-06-05T01:22:59.321Z,0
2017-06-05T01:23:58.671Z,0
2017-06-05T01:24:58.952Z,0
2017-06-05T01:25:58.632Z,0
2017-06-05T01:26:58.904Z,0
2017-06-05T01:27:58.956Z,0
2017-06-05T01:28:58.261Z,0
2017-06-05T01:29:59.182Z,0
2017-06-05T01:30:58.850Z,0
2017-06-05T01:31:59.141Z,0
2017-06-05T01:32:58.812Z,0
2017-06-05T01:33:59.110Z,0
2017-06-05T01:34:58.783Z,0
2017-06-05T01:35:58.454Z,0
2017-06-05T01:36:58.751Z,0
2017-06-05T01:37:58.743Z,0
2017-06-05T01:38:58.423Z,0
2017-06-05T01:39:58.729Z,0
2017-06-05T01:40:58.691Z,0
2017-06-05T01:41:58.383Z,0
2017-06-05T01:42:58.951Z,0
2017-06-05T01:43:58.952Z,0
2017-06-05T01:44:58.313Z,0
2017-06-05T01:45:58.602Z,0
2017-06-05T01:46:58.272Z,0
2017-06-05T01:47:58.261Z,0
2017-06-05T01:48:58.854Z,0
2017-06-05T01:49:58.833Z,0
2017-06-05T01:50:58.831Z,0
2017-06-05T01:51:58.180Z,0
2017-06-05T01:52:58.181Z,0
2017-06-05T01:53:58.773Z,0
2017-06-05T01:54:58.138Z,0
2017-06-05T01:55:58.147Z,0
2017-06-05T01:56:58.401Z,0
2017-06-05T01:57:57.779Z,0
2017-06-05T01:58:58.690Z,0
2017-06-05T01:59:58.661Z,0
2017-06-05T02:00:58.052Z,0
2017-06-05T02:01:58.340Z,0
2017-06-05T02:02:58.041Z,0
2017-06-05T02:03:58.303Z,0
2017-06-05T02:04:58.283Z,0
2017-06-05T02:05:58.310Z,0
2017-06-05T02:06:58.244Z,0
2017-06-05T02:07:58.220Z,0
2017-06-05T02:08:58.203Z,0
2017-06-05T02:09:57.873Z,0
2017-06-05T02:10:57.892Z,0
2017-06-05T02:11:58.175Z,0
2017-06-05T02:12:58.141Z,0
2017-06-05T02:13:57.831Z,0
2017-06-05T02:14:57.912Z,0
2017-06-05T02:15:58.090Z,0
2017-06-05T02:16:58.062Z,0
2017-06-05T02:17:57.792Z,0
2017-06-05T02:18:57.711Z,0
2017-06-05T02:19:58.310Z,0
2017-06-05T02:20:58.302Z,0
2017-06-05T02:21:57.996Z,0
2017-06-05T02:22:57.957Z,0
2017-06-05T02:23:58.240Z,0
2017-06-05T02:24:57.930Z,0
2017-06-05T02:25:57.985Z,0
2017-06-05T02:26:57.611Z,0
2017-06-05T02:27:57.881Z,0
2017-06-05T02:28:57.950Z,0
2017-06-05T02:29:57.872Z,0
2017-06-05T02:30:58.117Z,0
2017-06-05T02:31:57.523Z,0
2017-06-05T02:32:58.521Z,4
2017-06-05T02:33:57.830Z,4
2017-06-05T02:34:57.763Z,0
2017-06-05T02:35:57.802Z,0
2017-06-05T02:36:57.713Z,0
2017-06-05T02:37:57.405Z,4
2017-06-05T02:38:57.683Z,4
2017-06-05T02:39:57.960Z,0
2017-06-05T02:40:57.962Z,4
2017-06-05T02:41:57.951Z,4
2017-06-05T02:42:57.642Z,4
2017-06-05T02:43:57.001Z,4
2017-06-05T02:44:57.878Z,4
2017-06-05T02:45:57.866Z,4
2017-06-05T02:46:57.862Z,4
2017-06-05T02:47:57.843Z,8
2017-06-05T02:48:57.515Z,8
2017-06-05T02:49:57.812Z,8
2017-06-05T02:50:57.176Z,8
2017-06-05T02:51:57.779Z,12
2017-06-05T02:52:57.783Z,12
2017-06-05T02:53:57.754Z,12
2017-06-05T02:54:57.096Z,16
2017-06-05T02:55:57.702Z,20
2017-06-05T02:56:57.063Z,20
2017-06-05T02:57:57.684Z,20
2017-06-05T02:58:57.668Z,24
2017-06-05T02:59:57.359Z,24
2017-06-05T03:00:57.600Z,28
2017-06-05T03:01:57.312Z,28
2017-06-05T03:02:57.297Z,32
2017-06-05T03:03:57.272Z,32
2017-06-05T03:04:57.541Z,40
2017-06-05T03:05:57.222Z,40
2017-06-05T03:06:57.296Z,48
2017-06-05T03:07:57.182Z,52
2017-06-05T03:08:57.469Z,60
2017-06-05T03:09:57.137Z,60
2017-06-05T03:10:57.139Z,68
2017-06-05T03:11:56.794Z,72
2017-06-05T03:12:57.085Z,76
2017-06-05T03:13:57.371Z,80
2017-06-05T03:14:57.364Z,84
2017-06-05T03:15:57.071Z,88
2017-06-05T03:16:56.711Z,92
2017-06-05T03:17:57.021Z,96
2017-06-05T03:18:56.693Z,104
2017-06-05T03:19:57.293Z,112
2017-06-05T03:20:57.483Z,124
2017-06-05T03:21:57.231Z,136
2017-06-05T03:22:57.226Z,152
2017-06-05T03:23:56.284Z,164
2017-06-05T03:24:56.977Z,176
2017-06-05T03:25:56.855Z,180
2017-06-05T03:26:56.550Z,188
2017-06-05T03:27:56.534Z,200
2017-06-05T03:28:56.503Z,208
2017-06-05T03:29:57.089Z,220
2017-06-05T03:30:56.462Z,228
2017-06-05T03:31:57.073Z,232
2017-06-05T03:32:57.073Z,240
2017-06-05T03:33:57.042Z,248
2017-06-05T03:34:56.710Z,260
2017-06-05T03:35:56.692Z,268
2017-06-05T03:36:56.363Z,284
2017-06-05T03:37:56.662Z,296
2017-06-05T03:38:56.651Z,308
2017-06-05T03:39:56.642Z,324
2017-06-05T03:40:56.652Z,340
2017-06-05T03:41:56.891Z,352
2017-06-05T03:42:56.637Z,364
2017-06-05T03:43:56.263Z,376
2017-06-05T03:44:56.541Z,392
2017-06-05T03:45:56.826Z,404
2017-06-05T03:46:56.893Z,416
2017-06-05T03:47:56.164Z,432
2017-06-05T03:48:56.862Z,448
2017-06-05T03:49:56.144Z,464
2017-06-05T03:50:56.203Z,484
2017-06-05T03:51:56.401Z,500
2017-06-05T03:52:55.820Z,524
2017-06-05T03:53:56.364Z,540
2017-06-05T03:54:56.054Z,556
2017-06-05T03:55:56.357Z,576
2017-06-05T03:56:56.617Z,596
2017-06-05T03:57:56.281Z,620
2017-06-05T03:58:55.732Z,644
2017-06-05T03:59:56.562Z,680
2017-06-05T04:00:56.085Z,708
2017-06-05T04:01:56.542Z,748
2017-06-05T04:02:56.644Z,788
2017-06-05T04:03:56.502Z,828
2017-06-05T04:04:56.294Z,868
2017-06-05T04:05:55.870Z,904
2017-06-05T04:06:56.583Z,936
2017-06-05T04:07:56.431Z,960
2017-06-05T04:08:55.808Z,976
2017-06-05T04:09:55.472Z,988
2017-06-05T04:10:56.073Z,996
2017-06-05T04:11:56.060Z,1008
2017-06-05T04:12:55.811Z,1016
2017-06-05T04:13:55.718Z,1024
2017-06-05T04:14:56.039Z,1036
2017-06-05T04:15:55.760Z,1048
2017-06-05T04:16:55.663Z,1076
2017-06-05T04:17:55.640Z,1112
2017-06-05T04:18:55.999Z,1148
2017-06-05T04:19:55.902Z,1188
2017-06-05T04:20:55.935Z,1240
2017-06-05T04:21:55.860Z,1292
2017-06-05T04:22:55.951Z,1336
2017-06-05T04:23:55.843Z,1372
2017-06-05T04:24:56.203Z,1400
2017-06-05T04:25:55.811Z,1416
2017-06-05T04:26:55.793Z,1444
2017-06-05T04:27:55.803Z,1460
2017-06-05T04:28:55.782Z,1476
2017-06-05T04:29:55.791Z,1500
2017-06-05T04:30:56.023Z,1528
2017-06-05T04:31:55.724Z,1560
2017-06-05T04:32:55.672Z,1596
2017-06-05T04:33:55.672Z,1644
2017-06-05T04:34:55.722Z,1692
2017-06-05T04:35:55.653Z,1748
2017-06-05T04:36:55.621Z,1800
2017-06-05T04:37:55.275Z,1856
2017-06-05T04:38:55.557Z,1912
2017-06-05T04:39:55.611Z,1960
2017-06-05T04:40:55.841Z,2000
2017-06-05T04:41:55.920Z,2036
2017-06-05T04:42:55.961Z,2052
2017-06-05T04:43:55.212Z,2068
2017-06-05T04:44:55.456Z,2080
2017-06-05T04:45:55.472Z,2084
2017-06-05T04:46:55.433Z,2084
2017-06-05T04:47:55.453Z,2088
2017-06-05T04:48:55.411Z,2096
2017-06-05T04:49:55.684Z,2116
2017-06-05T04:50:55.704Z,2144
2017-06-05T04:51:55.360Z,2196
2017-06-05T04:52:55.329Z,2264
2017-06-05T04:53:55.333Z,2336
2017-06-05T04:54:55.591Z,2388
2017-06-05T04:55:55.285Z,2428
2017-06-05T04:56:55.302Z,2460
2017-06-05T04:57:54.943Z,2488
2017-06-05T04:58:55.230Z,2512
2017-06-05T04:59:55.510Z,2536
2017-06-05T05:00:55.498Z,2568
2017-06-05T05:01:55.173Z,2592
2017-06-05T05:02:55.509Z,2620
2017-06-05T05:03:54.840Z,2636
2017-06-05T05:04:55.483Z,2624
2017-06-05T05:05:55.414Z,2608
2017-06-05T05:06:55.381Z,2592
2017-06-05T05:07:55.423Z,2568
2017-06-05T05:08:55.450Z,2528
2017-06-05T05:09:55.342Z,2528
2017-06-05T05:10:55.011Z,2552
2017-06-05T05:11:55.323Z,2604
2017-06-05T05:12:55.293Z,2672
2017-06-05T05:13:55.323Z,2752
2017-06-05T05:14:54.950Z,2816
2017-06-05T05:15:54.936Z,2872
2017-06-05T05:16:55.219Z,2916
2017-06-05T05:17:54.901Z,2956
2017-06-05T05:18:55.195Z,3004
2017-06-05T05:19:54.868Z,3068
2017-06-05T05:20:54.586Z,3136
2017-06-05T05:21:55.238Z,3196
2017-06-05T05:22:55.114Z,3244
2017-06-05T05:23:54.792Z,3284
2017-06-05T05:24:55.071Z,3296
2017-06-05T05:25:55.051Z,3320
2017-06-05T05:26:55.061Z,3340
2017-06-05T05:27:54.403Z,3356
2017-06-05T05:28:54.703Z,3352
2017-06-05T05:29:54.381Z,3328
2017-06-05T05:30:54.979Z,3308
2017-06-05T05:31:55.037Z,3292
2017-06-05T05:32:54.936Z,3300
2017-06-05T05:33:54.922Z,3320
2017-06-05T05:34:54.622Z,3352
2017-06-05T05:35:54.886Z,3376
2017-06-05T05:36:54.876Z,3380
2017-06-05T05:37:54.548Z,3372
2017-06-05T05:38:54.235Z,3360
2017-06-05T05:39:54.826Z,3356
2017-06-05T05:40:54.802Z,3368
2017-06-05T05:41:54.484Z,3392
2017-06-05T05:42:54.781Z,3416
2017-06-05T05:43:54.752Z,3440
2017-06-05T05:44:54.430Z,3452
2017-06-05T05:45:54.779Z,3476
2017-06-05T05:46:54.402Z,3496
2017-06-05T05:47:54.097Z,3528
2017-06-05T05:48:53.752Z,3564
2017-06-05T05:49:54.342Z,3612
2017-06-05T05:50:54.328Z,3660
2017-06-05T05:51:54.011Z,3684
2017-06-05T05:52:54.014Z,3736
2017-06-05T05:53:54.013Z,3800
2017-06-05T05:54:54.263Z,3876
2017-06-05T05:55:54.583Z,3924
2017-06-05T05:56:53.920Z,4004
2017-06-05T05:57:54.264Z,4068
2017-06-05T05:58:54.204Z,4140
2017-06-05T05:59:54.524Z,4208
2017-06-05T06:00:54.464Z,4260
2017-06-05T06:01:54.124Z,4312
2017-06-05T06:02:54.436Z,4368
2017-06-05T06:03:53.796Z,4388
2017-06-05T06:04:54.430Z,4500
2017-06-05T06:05:54.371Z,4540
2017-06-05T06:06:54.062Z,4552
2017-06-05T06:07:54.109Z,4620
2017-06-05T06:08:54.327Z,4588
2017-06-05T06:09:54.326Z,4512
2017-06-05T06:10:54.292Z,4384
2017-06-05T06:11:54.272Z,4388
2017-06-05T06:12:53.954Z,4464
2017-06-05T06:13:53.466Z,4536
2017-06-05T06:14:53.929Z,4648
2017-06-05T06:15:54.212Z,4716
2017-06-05T06:16:53.893Z,4784
2017-06-05T06:17:53.863Z,4856
2017-06-05T06:18:54.184Z,4928
2017-06-05T06:19:53.852Z,4960
2017-06-05T06:20:53.811Z,4896
2017-06-05T06:21:54.120Z,4904
2017-06-05T06:22:53.484Z,4920
2017-06-05T06:23:53.792Z,4940
2017-06-05T06:24:54.082Z,5068
2017-06-05T06:25:54.045Z,5012
2017-06-05T06:26:53.713Z,4988
2017-06-05T06:27:54.011Z,4936
2017-06-05T06:28:54.022Z,4888
2017-06-05T06:29:53.352Z,4852
2017-06-05T06:30:53.963Z,4888
2017-06-05T06:31:53.648Z,5064
2017-06-05T06:32:53.430Z,5160
2017-06-05T06:33:53.313Z,5292
2017-06-05T06:34:53.591Z,5360
2017-06-05T06:35:53.577Z,5416
2017-06-05T06:36:53.560Z,5332
2017-06-05T06:37:53.851Z,5372
2017-06-05T06:38:53.839Z,5460
2017-06-05T06:39:53.193Z,5604
2017-06-05T06:40:53.808Z,5576
2017-06-05T06:41:53.174Z,5560
2017-06-05T06:42:53.262Z,5712
2017-06-05T06:43:53.466Z,5836
2017-06-05T06:44:53.541Z,5904
2017-06-05T06:45:53.423Z,5920
2017-06-05T06:46:53.120Z,5940
2017-06-05T06:47:53.491Z,6036
2017-06-05T06:48:53.063Z,6252
2017-06-05T06:49:53.663Z,6336
2017-06-05T06:50:53.329Z,6352
2017-06-05T06:51:53.342Z,6308
2017-06-05T06:52:53.323Z,6244
2017-06-05T06:53:53.610Z,6168
2017-06-05T06:54:53.581Z,6348
2017-06-05T06:55:53.273Z,6508
2017-06-05T06:56:53.231Z,6716
2017-06-05T06:57:53.331Z,6872
2017-06-05T06:58:53.532Z,7000
2017-06-05T06:59:52.896Z,7080
2017-06-05T07:00:53.175Z,6856
2017-06-05T07:01:53.173Z,6804
2017-06-05T07:02:53.172Z,6756
2017-06-05T07:03:53.311Z,6508
2017-06-05T07:04:53.132Z,6588
2017-06-05T07:05:53.102Z,6692
2017-06-05T07:06:52.802Z,7032
2017-06-05T07:07:53.133Z,7136
2017-06-05T07:08:53.083Z,7136
2017-06-05T07:09:53.064Z,7208
2017-06-05T07:10:52.726Z,7200
2017-06-05T07:11:53.003Z,7212
2017-06-05T07:12:53.294Z,7284
2017-06-05T07:13:52.985Z,7300
2017-06-05T07:14:52.651Z,7320
2017-06-05T07:15:52.637Z,7212
2017-06-05T07:16:52.950Z,7324
2017-06-05T07:17:53.222Z,7512
2017-06-05T07:18:53.275Z,7660
2017-06-05T07:19:52.880Z,7776
2017-06-05T07:20:52.570Z,7740
2017-06-05T07:21:52.909Z,7700
2017-06-05T07:22:52.844Z,7680
2017-06-05T07:23:52.621Z,7740
2017-06-05T07:24:53.216Z,7928
2017-06-05T07:25:53.116Z,8104
2017-06-05T07:26:52.780Z,8328
2017-06-05T07:27:53.082Z,8588
2017-06-05T07:28:52.752Z,8548
2017-06-05T07:29:53.055Z,8452
2017-06-05T07:30:53.022Z,8344
2017-06-05T07:31:53.089Z,8532
2017-06-05T07:32:53.204Z,8652
2017-06-05T07:33:53.021Z,8484
2017-06-05T07:34:52.986Z,8484
2017-06-05T07:35:52.722Z,8708
2017-06-05T07:36:52.942Z,8888
2017-06-05T07:37:53.029Z,8740
2017-06-05T07:38:52.901Z,8504
2017-06-05T07:39:52.935Z,8528
2017-06-05T07:40:52.897Z,8712
2017-06-05T07:41:52.931Z,8820
2017-06-05T07:42:52.551Z,8908
2017-06-05T07:43:52.850Z,9044
2017-06-05T07:44:52.877Z,9136
2017-06-05T07:45:52.822Z,8864
2017-06-05T07:46:52.481Z,8720
2017-06-05T07:47:52.475Z,8888
2017-06-05T07:48:52.451Z,9104
2017-06-05T07:49:52.438Z,9312
2017-06-05T07:50:52.743Z,9452
2017-06-05T07:51:52.397Z,9408
2017-06-05T07:52:52.079Z,9344
2017-06-05T07:53:52.398Z,9364
2017-06-05T07:54:52.677Z,9268
2017-06-05T07:55:52.039Z,9220
2017-06-05T07:56:52.342Z,9468
2017-06-05T07:57:52.331Z,9716
2017-06-05T07:58:52.322Z,9628
2017-06-05T07:59:52.617Z,9584
2017-06-05T08:00:52.281Z,9192
2017-06-05T08:01:52.581Z,9392
2017-06-05T08:02:51.950Z,9608
2017-06-05T08:03:52.564Z,9784
2017-06-05T08:04:52.540Z,9824
2017-06-05T08:05:52.533Z,9756
2017-06-05T08:06:52.223Z,9636
2017-06-05T08:07:52.212Z,9584
2017-06-05T08:08:52.479Z,9804
2017-06-05T08:09:52.460Z,9712
2017-06-05T08:10:52.151Z,9544
2017-06-05T08:11:52.477Z,9784
2017-06-05T08:12:52.130Z,9860
2017-06-05T08:13:52.102Z,10032
2017-06-05T08:14:52.411Z,10216
2017-06-05T08:15:52.102Z,10256
2017-06-05T08:16:51.490Z,10052
2017-06-05T08:17:52.040Z,10492
2017-06-05T08:18:52.044Z,10704
2017-06-05T08:19:51.724Z,10548
2017-06-05T08:20:52.028Z,10576
2017-06-05T08:21:52.303Z,10488
2017-06-05T08:22:51.970Z,10796
2017-06-05T08:23:51.971Z,11080
2017-06-05T08:24:52.250Z,11044
2017-06-05T08:25:52.043Z,11236
2017-06-05T08:26:51.618Z,11244
2017-06-05T08:27:51.969Z,11532
2017-06-05T08:28:52.211Z,11012
2017-06-05T08:29:51.626Z,11044
2017-06-05T08:30:51.561Z,11080
2017-06-05T08:31:51.855Z,11212
2017-06-05T08:32:52.173Z,11428
2017-06-05T08:33:51.911Z,11392
2017-06-05T08:34:52.118Z,11072
2017-06-05T08:35:51.601Z,11064
2017-06-05T08:36:51.802Z,11308
2017-06-05T08:37:51.791Z,11404
2017-06-05T08:38:51.772Z,11748
2017-06-05T08:39:52.070Z,11804
2017-06-05T08:40:52.044Z,11952
2017-06-05T08:41:52.058Z,12072
2017-06-05T08:42:51.413Z,12068
2017-06-05T08:43:51.806Z,11996
2017-06-05T08:44:51.371Z,11724
2017-06-05T08:45:51.370Z,11696
2017-06-05T08:46:52.043Z,11636
2017-06-05T08:47:51.384Z,12164
2017-06-05T08:48:51.761Z,12132
2017-06-05T08:49:51.938Z,11848
2017-06-05T08:50:51.664Z,12244
2017-06-05T08:51:51.380Z,12384
2017-06-05T08:52:51.915Z,12624
2017-06-05T08:53:51.271Z,12928
2017-06-05T08:54:51.562Z,12924
2017-06-05T08:55:51.242Z,13152
2017-06-05T08:56:50.931Z,13552
2017-06-05T08:57:51.533Z,14036
2017-06-05T08:58:51.581Z,14540
2017-06-05T08:59:51.224Z,14652
2017-06-05T09:00:51.820Z,14944
2017-06-05T09:01:51.803Z,15196
2017-06-05T09:02:51.480Z,15400
2017-06-05T09:03:51.811Z,14788
2017-06-05T09:04:51.443Z,16992
2017-06-05T09:05:51.443Z,18688
2017-06-05T09:06:51.732Z,20960
2017-06-05T09:07:51.121Z,26880
2017-06-05T09:08:51.404Z,31168
2017-06-05T09:09:51.701Z,23712
2017-06-05T09:10:51.092Z,22528
2017-06-05T09:11:51.049Z,23744
2017-06-05T09:12:51.754Z,27520
2017-06-05T09:13:51.330Z,31424
2017-06-05T09:14:51.010Z,39328
2017-06-05T09:15:51.622Z,40160
2017-06-05T09:16:51.586Z,41984
2017-06-05T09:17:51.714Z,50432
2017-06-05T09:18:51.587Z,53920
2017-06-05T09:19:51.311Z,50592
2017-06-05T09:20:51.584Z,49984
2017-06-05T09:21:51.589Z,43424
2017-06-05T09:22:51.243Z,50176
2017-06-05T09:23:51.601Z,55712
2017-06-05T09:24:51.524Z,57600
2017-06-05T09:25:51.522Z,55488
2017-06-05T09:26:51.221Z,56800
2017-06-05T09:27:51.203Z,58912
2017-06-05T09:28:50.901Z,59072
2017-06-05T09:29:51.183Z,59200
2017-06-05T09:30:51.160Z,66240
2017-06-05T09:31:50.852Z,63424
2017-06-05T09:32:50.850Z,49120
2017-06-05T09:33:51.155Z,58816
2017-06-05T09:34:51.432Z,57664
2017-06-05T09:35:50.861Z,54272
2017-06-05T09:36:51.431Z,59520
2017-06-05T09:37:51.422Z,58400
2017-06-05T09:38:50.779Z,60160
2017-06-05T09:39:50.789Z,66784
2017-06-05T09:40:51.083Z,67776
2017-06-05T09:41:51.381Z,66912
2017-06-05T09:42:50.758Z,65216
2017-06-05T09:43:51.081Z,63648
2017-06-05T09:44:51.041Z,61856
2017-06-05T09:45:50.780Z,62784
2017-06-05T09:46:51.339Z,58496
2017-06-05T09:47:51.442Z,65088
2017-06-05T09:48:51.345Z,65248
2017-06-05T09:49:51.083Z,67008
2017-06-05T09:50:51.001Z,68896
2017-06-05T09:51:50.712Z,65888
2017-06-05T09:52:51.001Z,63392
2017-06-05T09:53:51.332Z,58176
2017-06-05T09:54:50.979Z,60096
2017-06-05T09:55:50.671Z,64928
2017-06-05T09:56:51.285Z,62368
2017-06-05T09:57:50.711Z,55904
2017-06-05T09:58:50.663Z,59360
2017-06-05T09:59:50.672Z,62816
2017-06-05T10:00:50.950Z,58176
2017-06-05T10:01:51.271Z,56032
2017-06-05T10:02:50.942Z,55104
2017-06-05T10:03:51.240Z,54656
2017-06-05T10:04:50.910Z,56320
2017-06-05T10:05:50.901Z,55872
2017-06-05T10:06:50.918Z,54112
2017-06-05T10:07:50.938Z,48320
2017-06-05T10:08:51.188Z,54176
2017-06-05T10:09:51.192Z,51200
2017-06-05T10:10:50.882Z,41632
2017-06-05T10:11:51.181Z,44480
2017-06-05T10:12:50.935Z,48960
2017-06-05T10:13:51.181Z,50176
2017-06-05T10:14:51.171Z,46304
2017-06-05T10:15:51.170Z,44608
2017-06-05T10:16:50.892Z,43424
2017-06-05T10:17:51.143Z,43776
2017-06-05T10:18:51.141Z,44640
2017-06-05T10:19:50.544Z,44480
2017-06-05T10:20:50.520Z,42208
2017-06-05T10:21:51.172Z,40832
2017-06-05T10:22:50.812Z,36960
2017-06-05T10:23:50.819Z,21792
2017-06-05T10:24:50.502Z,9780
2017-06-05T10:25:51.091Z,9084
2017-06-05T10:26:50.798Z,8792
2017-06-05T10:27:51.081Z,8756
2017-06-05T10:28:51.128Z,8620
2017-06-05T10:29:50.750Z,8584
2017-06-05T10:30:50.455Z,8560
2017-06-05T10:31:50.444Z,8524
2017-06-05T10:32:50.785Z,8476
2017-06-05T10:33:51.027Z,8416
2017-06-05T10:34:51.018Z,8376
2017-06-05T10:35:50.713Z,8364
2017-06-05T10:36:50.723Z,8244
2017-06-05T10:37:51.078Z,8256
2017-06-05T10:38:50.702Z,8176
2017-06-05T10:39:51.004Z,8192
2017-06-05T10:40:51.000Z,8108
2017-06-05T10:41:51.008Z,8028
2017-06-05T10:42:50.666Z,8036
2017-06-05T10:43:50.652Z,8064
2017-06-05T10:44:50.672Z,8076
2017-06-05T10:45:50.335Z,8132
2017-06-05T10:46:50.941Z,8152
2017-06-05T10:47:50.615Z,8144
2017-06-05T10:48:50.624Z,8136
2017-06-05T10:49:50.672Z,8148
2017-06-05T10:50:50.602Z,8172
2017-06-05T10:51:50.599Z,8136
2017-06-05T10:52:50.929Z,8308
2017-06-05T10:53:50.909Z,8280
2017-06-05T10:54:50.880Z,8212
2017-06-05T10:55:50.602Z,8228
2017-06-05T10:56:50.546Z,8312
2017-06-05T10:57:50.851Z,8256
2017-06-05T10:58:50.851Z,8276
2017-06-05T10:59:50.831Z,8164
2017-06-05T11:00:50.845Z,8200
2017-06-05T11:01:50.506Z,8172
2017-06-05T11:02:50.802Z,8228
2017-06-05T11:03:50.891Z,8464
2017-06-05T11:04:50.630Z,8776
2017-06-05T11:05:50.603Z,8416
2017-06-05T11:06:50.882Z,8124
2017-06-05T11:07:50.451Z,8052
2017-06-05T11:08:50.454Z,8140
2017-06-05T11:09:50.834Z,8228
2017-06-05T11:10:50.733Z,8372
2017-06-05T11:11:50.445Z,8392
2017-06-05T11:12:50.493Z,8612
2017-06-05T11:13:50.741Z,8520
2017-06-05T11:14:50.694Z,8368
2017-06-05T11:15:50.404Z,8512
2017-06-05T11:16:50.662Z,7888
2017-06-05T11:17:50.662Z,8464
2017-06-05T11:18:50.683Z,8216
2017-06-05T11:19:50.694Z,4744
2017-06-05T11:20:50.635Z,4856
2017-06-05T11:21:50.633Z,8568
2017-06-05T11:22:50.411Z,8644
2017-06-05T11:23:50.622Z,8988
2017-06-05T11:24:50.621Z,9296
2017-06-05T11:25:50.592Z,9568
2017-06-05T11:26:50.652Z,9752
2017-06-05T11:27:50.662Z,9928
2017-06-05T11:28:50.068Z,9860
2017-06-05T11:29:50.276Z,10088
2017-06-05T11:30:50.593Z,9940
2017-06-05T11:31:50.559Z,10412
2017-06-05T11:32:50.555Z,10100
2017-06-05T11:33:50.512Z,9568
2017-06-05T11:34:49.904Z,9296
2017-06-05T11:35:50.510Z,9200
2017-06-05T11:36:50.499Z,9176
2017-06-05T11:37:50.481Z,6528
2017-06-05T11:38:50.165Z,9328
2017-06-05T11:39:50.186Z,9416
2017-06-05T11:40:50.471Z,9352
2017-06-05T11:41:50.467Z,9348
2017-06-05T11:42:50.473Z,9492
2017-06-05T11:43:50.438Z,9556
2017-06-05T11:44:50.435Z,9044
2017-06-05T11:45:50.121Z,9836
2017-06-05T11:46:50.430Z,9976
2017-06-05T11:47:50.130Z,10024
2017-06-05T11:48:53.472Z,9708
2017-06-05T11:49:50.060Z,9604
2017-06-05T11:50:50.060Z,9496
2017-06-05T11:51:50.435Z,9412
2017-06-05T11:52:50.364Z,9228
2017-06-05T11:53:50.031Z,8704
2017-06-05T11:54:50.037Z,8384
2017-06-05T11:55:50.419Z,5220
2017-06-05T11:56:50.404Z,5224
2017-06-05T11:57:50.344Z,5312
2017-06-05T11:58:50.097Z,5632
2017-06-05T11:59:49.972Z,6972
2017-06-05T12:00:49.662Z,9664
2017-06-05T12:01:50.304Z,9188
2017-06-05T12:02:50.263Z,8812
2017-06-05T12:03:50.291Z,8836
2017-06-05T12:04:49.958Z,8952
2017-06-05T12:05:50.290Z,8840
2017-06-05T12:06:50.250Z,8776
2017-06-05T12:07:50.217Z,9028
2017-06-05T12:08:49.905Z,6488
2017-06-05T12:09:49.923Z,8656
2017-06-05T12:10:50.189Z,8852
2017-06-05T12:11:50.174Z,8864
2017-06-05T12:12:50.172Z,8516
2017-06-05T12:13:50.174Z,4564
2017-06-05T12:14:50.149Z,5348
2017-06-05T12:15:50.151Z,4956
2017-06-05T12:16:50.152Z,5232
2017-06-05T12:17:49.509Z,5376
2017-06-05T12:18:49.852Z,5736
2017-06-05T12:19:49.780Z,10080
2017-06-05T12:20:49.588Z,10072
2017-06-05T12:21:50.090Z,10364
2017-06-05T12:22:50.092Z,6320
2017-06-05T12:23:50.062Z,9112
2017-06-05T12:24:49.814Z,10268
2017-06-05T12:25:50.058Z,9924
2017-06-05T12:26:50.053Z,8396
2017-06-05T12:27:49.426Z,5660
2017-06-05T12:28:49.743Z,5392
2017-06-05T12:29:50.025Z,5040
2017-06-05T12:30:49.731Z,4760
2017-06-05T12:31:49.730Z,4552
2017-06-05T12:32:49.961Z,4552
2017-06-05T12:33:50.010Z,4552
2017-06-05T12:34:49.643Z,4996
2017-06-05T12:35:49.952Z,8148
2017-06-05T12:36:49.627Z,8648
2017-06-05T12:37:49.642Z,8524
2017-06-05T12:38:49.915Z,9124
2017-06-05T12:39:49.895Z,9132
2017-06-05T12:40:49.939Z,8860
2017-06-05T12:41:49.886Z,5964
2017-06-05T12:42:49.582Z,5788
2017-06-05T12:43:49.246Z,8880
2017-06-05T12:44:49.876Z,5672
2017-06-05T12:45:49.933Z,9076
2017-06-05T12:46:49.535Z,5420
2017-06-05T12:47:49.538Z,5324
2017-06-05T12:48:49.890Z,5384
2017-06-05T12:49:49.499Z,5404
2017-06-05T12:50:49.798Z,5388
2017-06-05T12:51:49.800Z,5520
2017-06-05T12:52:49.489Z,5664
2017-06-05T12:53:49.469Z,5628
2017-06-05T12:54:49.479Z,5676
2017-06-05T12:55:49.441Z,5644
2017-06-05T12:56:49.759Z,5624
2017-06-05T12:57:49.731Z,5416
2017-06-05T12:58:49.778Z,5352
2017-06-05T12:59:49.720Z,5236
2017-06-05T13:00:49.707Z,5468
2017-06-05T13:01:49.734Z,5240
2017-06-05T13:02:49.691Z,5316
2017-06-05T13:03:49.436Z,5432
2017-06-05T13:04:49.350Z,5440
2017-06-05T13:05:49.351Z,5412
2017-06-05T13:06:49.662Z,5444
2017-06-05T13:07:49.341Z,5632
2017-06-05T13:08:49.310Z,5840
2017-06-05T13:09:49.638Z,6060
2017-06-05T13:10:49.578Z,6108
2017-06-05T13:11:48.978Z,6140
2017-06-05T13:12:49.263Z,6280
2017-06-05T13:13:49.574Z,6512
2017-06-05T13:14:49.562Z,7604
2017-06-05T13:15:48.920Z,6960
2017-06-05T13:16:49.246Z,6900
2017-06-05T13:17:49.240Z,7032
2017-06-05T13:18:48.890Z,7108
2017-06-05T13:19:49.492Z,6960
2017-06-05T13:20:48.883Z,6780
2017-06-05T13:21:49.164Z,8244
2017-06-05T13:22:49.169Z,9820
2017-06-05T13:23:49.162Z,8200
2017-06-05T13:24:49.456Z,9228
2017-06-05T13:25:49.464Z,9060
2017-06-05T13:26:48.845Z,9740
2017-06-05T13:27:49.120Z,7812
2017-06-05T13:28:49.416Z,6884
2017-06-05T13:29:49.111Z,6392
2017-06-05T13:30:49.392Z,6516
2017-06-05T13:31:49.444Z,6336
2017-06-05T13:32:49.413Z,6180
2017-06-05T13:33:49.104Z,9292